createdAt,value
2017-08-20T00:01:58.311Z,94.10
2017-08-20T00:04:25.927Z,94.00
2017-08-20T00:06:53.478Z,93.90
2017-08-20T00:09:21.044Z,93.90
2017-08-20T00:11:48.604Z,93.70
2017-08-20T00:14:16.135Z,93.60
2017-08-20T00:16:43.658Z,93.50
2017-08-20T00:19:11.164Z,93.30
2017-08-20T00:21:38.741Z,92.90
2017-08-20T00:24:06.268Z,92.70
2017-08-20T00:26:33.788Z,92.30
2017-08-20T00:29:01.339Z,92.20
2017-08-20T00:31:28.857Z,92.20
2017-08-20T00:33:56.373Z,92.00
2017-08-20T00:36:23.917Z,92.00
2017-08-20T00:38:51.444Z,92.00
2017-08-20T00:41:18.961Z,92.00
2017-08-20T00:43:47.286Z,92.10
2017-08-20T00:46:14.839Z,91.90
2017-08-20T00:48:42.358Z,91.90
2017-08-20T00:51:10.660Z,91.90
2017-08-20T00:53:38.183Z,91.90
2017-08-20T00:56:05.684Z,91.80
2017-08-20T00:58:33.218Z,91.70
2017-08-20T01:01:01.489Z,91.30
2017-08-20T01:03:29.750Z,91.10
2017-08-20T01:05:57.275Z,91.10
2017-08-20T01:08:24.780Z,90.90
2017-08-20T01:10:53.095Z,91.10
2017-08-20T01:13:20.628Z,91.10
2017-08-20T01:15:48.127Z,91.10
2017-08-20T01:18:15.623Z,90.80
2017-08-20T01:20:43.938Z,90.90
2017-08-20T01:23:11.506Z,90.80
2017-08-20T01:25:39.021Z,91.00
2017-08-20T01:28:07.322Z,90.80
2017-08-20T01:30:34.843Z,90.80
2017-08-20T01:33:02.344Z,90.70
2017-08-20T01:35:29.882Z,90.50
2017-08-20T01:37:58.147Z,90.40
2017-08-20T01:40:26.469Z,90.40
2017-08-20T01:42:54.026Z,90.40
2017-08-20T01:45:21.527Z,90.40
2017-08-20T01:47:49.036Z,90.70
2017-08-20T01:50:16.568Z,90.70
2017-08-20T01:52:44.072Z,91.00
2017-08-20T01:55:11.580Z,90.80
2017-08-20T01:57:40.002Z,90.80
2017-08-20T02:00:07.559Z,90.80
2017-08-20T02:02:35.218Z,91.00
2017-08-20T02:05:02.770Z,90.90
2017-08-20T02:07:30.333Z,90.90
2017-08-20T02:09:57.831Z,90.80
2017-08-20T02:12:25.454Z,90.70
2017-08-20T02:14:52.970Z,90.60
2017-08-20T02:17:21.253Z,90.90
2017-08-20T02:19:48.803Z,90.90
2017-08-20T02:22:17.098Z,91.00
2017-08-20T02:24:44.683Z,91.00
2017-08-20T02:27:12.184Z,91.00
2017-08-20T02:29:39.701Z,91.00
2017-08-20T02:32:07.246Z,91.10
2017-08-20T02:34:34.770Z,91.20
2017-08-20T02:37:02.377Z,91.20
2017-08-20T02:39:29.927Z,91.40
2017-08-20T02:41:57.495Z,91.50
2017-08-20T02:44:25.000Z,91.70
2017-08-20T02:46:53.307Z,91.90
2017-08-20T02:49:20.827Z,91.60
2017-08-20T02:51:48.347Z,91.70
2017-08-20T02:54:15.893Z,91.80
2017-08-20T02:56:43.418Z,91.90
2017-08-20T02:59:11.688Z,92.10
2017-08-20T03:01:39.992Z,92.50
2017-08-20T03:04:07.492Z,92.20
2017-08-20T03:06:35.024Z,92.20
2017-08-20T03:09:02.578Z,92.20
2017-08-20T03:11:30.087Z,92.20
2017-08-20T03:13:57.602Z,92.40
2017-08-20T03:16:25.148Z,92.40
2017-08-20T03:18:52.675Z,92.40
2017-08-20T03:21:20.969Z,92.60
2017-08-20T03:23:49.264Z,92.50
2017-08-20T03:26:16.835Z,92.40
2017-08-20T03:28:44.358Z,92.60
2017-08-20T03:31:12.648Z,92.60
2017-08-20T03:33:40.166Z,92.60
2017-08-20T03:36:07.694Z,92.80
2017-08-20T03:38:35.223Z,92.90
2017-08-20T03:41:02.742Z,93.00
2017-08-20T03:43:30.243Z,93.10
2017-08-20T03:45:57.794Z,93.20
2017-08-20T03:48:25.326Z,93.20
2017-08-20T03:50:52.827Z,93.20
2017-08-20T03:53:20.374Z,93.30
2017-08-20T03:55:47.876Z,93.60
2017-08-20T03:58:15.379Z,93.40
2017-08-20T04:00:43.679Z,93.30
2017-08-20T04:03:11.206Z,93.30
2017-08-20T04:05:39.480Z,93.30
2017-08-20T04:08:07.776Z,93.20
2017-08-20T04:10:35.280Z,93.20
2017-08-20T04:13:02.794Z,93.20
2017-08-20T04:15:30.457Z,93.30
2017-08-20T04:17:57.987Z,93.00
2017-08-20T04:20:26.313Z,93.20
2017-08-20T04:22:53.858Z,93.20
2017-08-20T04:25:21.431Z,93.20
2017-08-20T04:27:48.944Z,93.20
2017-08-20T04:30:17.276Z,93.20
2017-08-20T04:32:44.823Z,93.20
2017-08-20T04:35:12.383Z,93.20
2017-08-20T04:37:39.934Z,93.20
2017-08-20T04:40:07.444Z,93.30
2017-08-20T04:42:34.967Z,93.20
2017-08-20T04:45:02.552Z,93.20
2017-08-20T04:47:30.063Z,93.40
2017-08-20T04:49:58.354Z,93.50
2017-08-20T04:52:26.670Z,93.30
2017-08-20T04:54:54.218Z,93.30
2017-08-20T04:57:21.724Z,93.10
2017-08-20T04:59:49.272Z,92.90
2017-08-20T05:02:16.801Z,92.80
2017-08-20T05:04:44.313Z,92.90
2017-08-20T05:07:12.622Z,92.40
2017-08-20T05:09:40.136Z,92.40
2017-08-20T05:12:07.640Z,92.40
2017-08-20T05:14:35.196Z,92.20
2017-08-20T05:17:02.722Z,92.10
2017-08-20T05:19:31.014Z,92.20
2017-08-20T05:21:58.576Z,91.90
2017-08-20T05:24:26.080Z,91.70
2017-08-20T05:26:53.619Z,91.30
2017-08-20T05:29:21.156Z,91.20
2017-08-20T05:31:48.655Z,91.20
2017-08-20T05:34:16.160Z,91.00
2017-08-20T05:36:43.704Z,90.90
2017-08-20T05:39:11.975Z,91.00
2017-08-20T05:41:39.587Z,90.70
2017-08-20T05:44:07.138Z,89.70
2017-08-20T05:46:34.653Z,89.50
2017-08-20T05:49:02.174Z,88.30
2017-08-20T05:51:30.151Z,88.40
2017-08-20T05:53:57.904Z,86.80
2017-08-20T05:56:25.403Z,85.90
2017-08-20T05:58:52.932Z,85.60
2017-08-20T06:01:20.463Z,84.70
2017-08-20T06:03:47.978Z,85.00
2017-08-20T06:06:15.526Z,84.90
2017-08-20T06:08:43.028Z,85.10
2017-08-20T06:11:10.527Z,85.00
2017-08-20T06:13:38.056Z,84.00
2017-08-20T06:16:05.559Z,82.40
2017-08-20T06:18:33.072Z,82.90
2017-08-20T06:21:00.614Z,83.10
2017-08-20T06:23:28.122Z,82.80
2017-08-20T06:25:55.624Z,82.80
2017-08-20T06:28:23.174Z,81.90
2017-08-20T06:30:51.439Z,83.90
2017-08-20T06:33:18.941Z,83.90
2017-08-20T06:35:46.495Z,82.90
2017-08-20T06:38:14.062Z,81.90
2017-08-20T06:40:41.564Z,81.30
2017-08-20T06:43:09.183Z,80.90
2017-08-20T06:45:36.679Z,80.30
2017-08-20T06:48:04.202Z,81.80
2017-08-20T06:50:31.750Z,81.00
2017-08-20T06:52:59.256Z,80.70
2017-08-20T06:55:26.770Z,81.20
2017-08-20T06:57:54.315Z,80.30
2017-08-20T07:00:21.892Z,80.10
2017-08-20T07:02:49.391Z,80.30
2017-08-20T07:05:16.939Z,81.30
2017-08-20T07:07:44.462Z,80.80
2017-08-20T07:10:11.965Z,80.40
2017-08-20T07:12:39.582Z,80.80
2017-08-20T07:15:07.097Z,81.30
2017-08-20T07:17:35.359Z,80.60
2017-08-20T07:20:02.887Z,80.70
2017-08-20T07:22:30.402Z,79.30
2017-08-20T07:24:58.689Z,79.80
2017-08-20T07:27:26.220Z,79.70
2017-08-20T07:29:53.724Z,77.90
2017-08-20T07:32:21.237Z,78.60
2017-08-20T07:34:48.768Z,77.90
2017-08-20T07:37:16.302Z,77.50
2017-08-20T07:39:43.809Z,76.00
2017-08-20T07:42:11.378Z,74.20
2017-08-20T07:44:39.696Z,74.10
2017-08-20T07:47:07.210Z,74.10
2017-08-20T07:49:35.529Z,74.80
2017-08-20T07:52:03.042Z,74.80
2017-08-20T07:54:30.649Z,74.90
2017-08-20T07:56:58.184Z,74.00
2017-08-20T07:59:25.722Z,73.20
2017-08-20T08:01:54.042Z,71.10
2017-08-20T08:04:21.584Z,70.40
2017-08-20T08:06:49.161Z,69.70
2017-08-20T08:09:16.673Z,68.80
2017-08-20T08:11:44.221Z,68.00
2017-08-20T08:14:11.735Z,67.20
2017-08-20T08:16:39.239Z,67.90
2017-08-20T08:19:06.777Z,68.50
2017-08-20T08:21:34.291Z,67.00
2017-08-20T08:24:01.873Z,67.60
2017-08-20T08:26:29.410Z,68.40
2017-08-20T08:28:56.927Z,68.10
2017-08-20T08:31:24.428Z,66.80
2017-08-20T08:33:52.009Z,67.40
2017-08-20T08:36:19.565Z,68.20
2017-08-20T08:38:47.069Z,67.30
2017-08-20T08:41:14.682Z,66.60
2017-08-20T08:43:42.179Z,66.70
2017-08-20T08:46:09.674Z,67.40
2017-08-20T08:48:37.218Z,64.70
2017-08-20T08:51:05.479Z,62.40
2017-08-20T08:53:33.090Z,62.30
2017-08-20T08:56:00.650Z,61.00
2017-08-20T08:58:28.157Z,58.60
2017-08-20T09:00:55.771Z,58.60
2017-08-20T09:03:23.524Z,57.70
2017-08-20T09:05:51.023Z,54.90
2017-08-20T09:08:18.527Z,52.60
2017-08-20T09:10:46.052Z,52.00
2017-08-20T09:13:13.571Z,53.90
2017-08-20T09:15:41.090Z,56.30
2017-08-20T09:18:09.504Z,56.60
2017-08-20T09:20:37.051Z,56.60
2017-08-20T09:23:04.625Z,54.50
2017-08-20T09:25:32.172Z,53.90
2017-08-20T09:27:59.738Z,50.70
2017-08-20T09:30:27.248Z,48.50
2017-08-20T09:32:54.776Z,49.80
2017-08-20T09:35:22.317Z,51.50
2017-08-20T09:37:49.829Z,54.00
2017-08-20T09:40:18.743Z,53.30
2017-08-20T09:42:46.322Z,53.30
2017-08-20T09:45:13.839Z,53.00
2017-08-20T09:47:42.145Z,54.70
2017-08-20T09:50:09.666Z,55.20
2017-08-20T09:52:37.168Z,54.60
2017-08-20T09:55:04.718Z,54.00
2017-08-20T09:57:32.211Z,54.30
2017-08-20T09:59:59.740Z,54.40
2017-08-20T10:02:27.286Z,54.00
2017-08-20T10:04:54.811Z,54.00
2017-08-20T10:07:22.322Z,55.40
2017-08-20T10:09:49.870Z,56.20
2017-08-20T10:12:17.399Z,56.30
2017-08-20T10:14:45.668Z,56.60
2017-08-20T10:17:13.279Z,56.40
2017-08-20T10:19:40.794Z,56.20
2017-08-20T10:22:09.074Z,54.30
2017-08-20T10:24:37.391Z,52.00
2017-08-20T10:27:04.888Z,51.50
2017-08-20T10:29:32.427Z,51.20
2017-08-20T10:31:59.974Z,50.50
2017-08-20T10:34:27.472Z,48.40
2017-08-20T10:36:55.743Z,45.70
2017-08-20T10:39:24.051Z,44.00
2017-08-20T10:41:51.552Z,43.90
2017-08-20T10:44:19.223Z,45.50
2017-08-20T10:46:47.148Z,45.50
2017-08-20T10:49:14.652Z,45.70
2017-08-20T10:51:42.178Z,47.20
2017-08-20T10:54:09.730Z,47.50
2017-08-20T10:56:37.242Z,48.50
2017-08-20T10:59:04.754Z,49.50
2017-08-20T11:01:32.307Z,50.20
2017-08-20T11:04:00.782Z,49.10
2017-08-20T11:06:28.661Z,47.30
2017-08-20T11:08:57.139Z,43.70
2017-08-20T11:11:25.535Z,44.00
2017-08-20T11:13:55.057Z,43.70
2017-08-20T11:16:22.788Z,43.70
2017-08-20T11:18:50.292Z,46.60
2017-08-20T11:21:17.802Z,48.90
2017-08-20T11:23:45.358Z,50.00
2017-08-20T11:26:12.879Z,51.00
2017-08-20T11:28:41.144Z,53.10
2017-08-20T11:31:08.663Z,52.90
2017-08-20T11:33:36.186Z,54.70
2017-08-20T11:36:03.702Z,54.90
2017-08-20T11:38:31.330Z,56.00
2017-08-20T11:40:58.833Z,55.50
2017-08-20T11:43:26.346Z,55.40
2017-08-20T11:45:53.890Z,53.10
2017-08-20T11:48:21.398Z,52.10
2017-08-20T11:50:48.896Z,50.20
2017-08-20T11:53:16.889Z,45.40
2017-08-20T11:55:44.719Z,44.30
2017-08-20T11:58:12.993Z,39.30
2017-08-20T12:00:40.539Z,39.20
2017-08-20T12:03:08.050Z,37.20
2017-08-20T12:05:35.547Z,33.10
2017-08-20T12:08:03.099Z,35.60
2017-08-20T12:10:30.613Z,31.40
2017-08-20T12:12:58.122Z,30.00
2017-08-20T12:15:25.673Z,31.90
2017-08-20T12:17:53.198Z,36.30
2017-08-20T12:20:20.715Z,37.90
2017-08-20T12:22:49.030Z,35.90
2017-08-20T12:25:16.532Z,35.20
2017-08-20T12:27:44.048Z,36.50
2017-08-20T12:30:11.591Z,36.50
2017-08-20T12:32:39.180Z,35.30
2017-08-20T12:35:06.698Z,35.00
2017-08-20T12:37:34.983Z,37.50
2017-08-20T12:40:02.562Z,37.50
2017-08-20T12:42:30.059Z,37.40
2017-08-20T12:44:57.687Z,35.60
2017-08-20T12:47:25.179Z,39.50
2017-08-20T12:49:52.686Z,42.10
2017-08-20T12:52:20.217Z,43.40
2017-08-20T12:54:48.498Z,46.10
2017-08-20T12:57:16.786Z,42.70
2017-08-20T12:59:44.308Z,42.60
2017-08-20T13:02:11.799Z,41.40
2017-08-20T13:04:39.291Z,41.70
2017-08-20T13:07:06.816Z,40.70
2017-08-20T13:09:34.502Z,42.70
2017-08-20T13:12:02.015Z,42.70
2017-08-20T13:14:30.330Z,46.00
2017-08-20T13:16:57.946Z,45.90
2017-08-20T13:19:25.439Z,47.60
2017-08-20T13:21:53.001Z,48.20
2017-08-20T13:24:20.514Z,48.90
2017-08-20T13:26:48.027Z,48.60
2017-08-20T13:29:15.600Z,49.60
2017-08-20T13:31:43.099Z,51.60
2017-08-20T13:34:11.360Z,51.40
2017-08-20T13:36:38.906Z,51.10
2017-08-20T13:39:06.437Z,46.10
2017-08-20T13:41:33.962Z,43.00
2017-08-20T13:44:02.272Z,41.50
2017-08-20T13:46:29.772Z,41.40
2017-08-20T13:48:57.268Z,42.20
2017-08-20T13:51:24.815Z,42.90
2017-08-20T13:53:52.341Z,45.90
2017-08-20T13:56:19.849Z,45.80
2017-08-20T13:58:47.371Z,41.40
2017-08-20T14:01:14.867Z,41.50
2017-08-20T14:03:42.390Z,39.60
2017-08-20T14:06:09.918Z,41.90
2017-08-20T14:08:37.411Z,44.40
2017-08-20T14:11:05.689Z,49.80
2017-08-20T14:13:34.003Z,51.40
2017-08-20T14:16:01.504Z,51.40
2017-08-20T14:18:29.038Z,50.60
2017-08-20T14:20:56.563Z,52.00
2017-08-20T14:23:24.079Z,53.50
2017-08-20T14:25:51.584Z,53.80
2017-08-20T14:28:19.122Z,54.70
2017-08-20T14:30:47.412Z,55.20
2017-08-20T14:33:14.907Z,54.70
2017-08-20T14:35:42.450Z,54.90
2017-08-20T14:38:09.966Z,55.40
2017-08-20T14:40:38.244Z,54.60
2017-08-20T14:43:06.756Z,54.10
2017-08-20T14:45:34.270Z,54.00
2017-08-20T14:48:01.787Z,55.60
2017-08-20T14:50:29.343Z,55.90
2017-08-20T14:52:56.857Z,55.40
2017-08-20T14:55:25.134Z,56.50
2017-08-20T14:57:53.419Z,56.20
2017-08-20T15:00:21.701Z,55.30
2017-08-20T15:02:50.002Z,54.40
2017-08-20T15:05:17.551Z,54.40
2017-08-20T15:07:45.070Z,55.10
2017-08-20T15:10:12.680Z,54.10
2017-08-20T15:12:40.226Z,53.10
2017-08-20T15:15:07.800Z,52.20
2017-08-20T15:17:35.304Z,53.30
2017-08-20T15:20:02.846Z,52.40
2017-08-20T15:22:30.344Z,52.70
2017-08-20T15:24:58.623Z,52.40
2017-08-20T15:27:26.888Z,53.30
2017-08-20T15:29:55.186Z,53.00
2017-08-20T15:32:22.702Z,53.00
2017-08-20T15:34:50.195Z,53.20
2017-08-20T15:37:17.722Z,52.60
2017-08-20T15:39:45.231Z,55.20
2017-08-20T15:42:12.760Z,56.80
2017-08-20T15:44:41.033Z,56.00
2017-08-20T15:47:09.312Z,55.40
2017-08-20T15:49:37.606Z,56.50
2017-08-20T15:52:05.103Z,56.60
2017-08-20T15:54:32.628Z,56.50
2017-08-20T15:57:00.138Z,57.20
2017-08-20T15:59:27.655Z,57.20
2017-08-20T16:01:55.215Z,57.30
2017-08-20T16:04:22.771Z,57.50
2017-08-20T16:06:50.285Z,58.20
2017-08-20T16:09:18.595Z,59.10
2017-08-20T16:11:46.111Z,59.10
2017-08-20T16:14:13.658Z,59.10
2017-08-20T16:16:41.283Z,59.30
2017-08-20T16:19:08.784Z,60.00
2017-08-20T16:21:36.409Z,60.00
2017-08-20T16:24:03.931Z,61.00
2017-08-20T16:26:32.215Z,61.60
2017-08-20T16:28:59.730Z,61.60
2017-08-20T16:31:27.270Z,61.70
2017-08-20T16:33:54.782Z,61.60
2017-08-20T16:36:22.306Z,61.40
2017-08-20T16:38:49.831Z,62.30
2017-08-20T16:41:17.329Z,62.40
2017-08-20T16:43:44.842Z,62.70
2017-08-20T16:46:12.401Z,63.40
2017-08-20T16:48:39.916Z,64.40
2017-08-20T16:51:08.289Z,65.60
2017-08-20T16:53:35.816Z,66.40
2017-08-20T16:56:03.334Z,66.50
2017-08-20T16:58:30.845Z,67.90
2017-08-20T17:00:58.414Z,67.30
2017-08-20T17:03:25.916Z,67.80
2017-08-20T17:05:53.420Z,67.40
2017-08-20T17:08:20.966Z,67.80
2017-08-20T17:10:48.467Z,68.30
2017-08-20T17:13:16.732Z,69.00
2017-08-20T17:15:44.271Z,68.90
2017-08-20T17:18:11.809Z,69.50
2017-08-20T17:20:39.356Z,68.90
2017-08-20T17:23:06.919Z,69.40
2017-08-20T17:25:34.433Z,68.70
2017-08-20T17:28:02.700Z,68.80
2017-08-20T17:30:30.232Z,68.80
2017-08-20T17:32:57.756Z,69.40
2017-08-20T17:35:25.275Z,69.10
2017-08-20T17:37:53.601Z,68.00
2017-08-20T17:40:21.119Z,67.90
2017-08-20T17:42:49.384Z,67.60
2017-08-20T17:45:16.996Z,67.60
2017-08-20T17:47:44.496Z,67.30
2017-08-20T17:50:12.023Z,66.40
2017-08-20T17:52:39.556Z,66.30
2017-08-20T17:55:07.059Z,67.00
2017-08-20T17:57:34.573Z,64.60
2017-08-20T18:00:02.118Z,64.00
2017-08-20T18:02:29.625Z,65.50
2017-08-20T18:04:57.143Z,65.30
2017-08-20T18:07:24.679Z,64.30
2017-08-20T18:09:53.879Z,65.10
2017-08-20T18:12:22.153Z,64.80
2017-08-20T18:14:50.459Z,64.00
2017-08-20T18:17:17.973Z,63.80
2017-08-20T18:19:45.472Z,64.20
2017-08-20T18:22:13.004Z,64.40
2017-08-20T18:24:41.296Z,65.00
2017-08-20T18:27:08.805Z,64.90
2017-08-20T18:29:36.439Z,65.90
2017-08-20T18:32:03.940Z,66.40
2017-08-20T18:34:31.432Z,68.10
2017-08-20T18:36:58.990Z,66.40
2017-08-20T18:39:26.676Z,66.10
2017-08-20T18:41:54.186Z,65.90
2017-08-20T18:44:21.735Z,66.50
2017-08-20T18:46:49.251Z,66.20
2017-08-20T18:49:16.767Z,67.60
2017-08-20T18:51:45.188Z,67.60
2017-08-20T18:54:12.711Z,67.60
2017-08-20T18:56:40.976Z,68.60
2017-08-20T18:59:09.264Z,70.40
2017-08-20T19:01:37.550Z,70.50
2017-08-20T19:04:05.039Z,70.50
2017-08-20T19:06:32.565Z,72.20
2017-08-20T19:09:00.074Z,73.80
2017-08-20T19:11:27.582Z,75.10
2017-08-20T19:13:55.111Z,76.30
2017-08-20T19:16:22.629Z,78.00
2017-08-20T19:18:50.128Z,78.80
2017-08-20T19:21:17.667Z,79.10
2017-08-20T19:23:45.183Z,79.40
2017-08-20T19:26:12.694Z,79.70
2017-08-20T19:28:40.316Z,79.40
2017-08-20T19:31:07.830Z,80.20
2017-08-20T19:33:36.115Z,79.70
2017-08-20T19:36:04.412Z,80.30
2017-08-20T19:38:31.939Z,80.30
2017-08-20T19:41:00.260Z,79.60
2017-08-20T19:43:27.801Z,79.60
2017-08-20T19:45:55.456Z,80.00
2017-08-20T19:48:22.955Z,80.50
2017-08-20T19:50:50.518Z,81.00
2017-08-20T19:53:18.021Z,80.90
2017-08-20T19:55:46.336Z,81.50
2017-08-20T19:58:13.877Z,81.50
2017-08-20T20:00:41.476Z,81.60
2017-08-20T20:03:08.976Z,82.10
2017-08-20T20:05:37.286Z,83.10
2017-08-20T20:08:04.787Z,83.10
2017-08-20T20:10:32.302Z,83.70
2017-08-20T20:12:59.859Z,84.10
2017-08-20T20:15:27.359Z,84.50
2017-08-20T20:17:54.851Z,84.70
2017-08-20T20:20:22.379Z,85.50
2017-08-20T20:22:49.898Z,85.90
2017-08-20T20:25:17.414Z,86.10
2017-08-20T20:27:45.828Z,86.80
2017-08-20T20:30:13.328Z,86.70
2017-08-20T20:32:40.819Z,87.00
2017-08-20T20:35:09.225Z,87.10
2017-08-20T20:37:36.782Z,87.10
2017-08-20T20:40:04.285Z,87.00
2017-08-20T20:42:32.584Z,86.20
2017-08-20T20:45:00.852Z,86.30
2017-08-20T20:47:29.121Z,86.60
2017-08-20T20:49:56.728Z,86.60
2017-08-20T20:52:24.232Z,86.80
2017-08-20T20:54:51.847Z,87.10
2017-08-20T20:57:19.375Z,87.70
2017-08-20T20:59:47.646Z,89.00
2017-08-20T21:02:15.151Z,89.00
2017-08-20T21:04:42.695Z,89.10
2017-08-20T21:07:10.257Z,88.90
2017-08-20T21:09:37.756Z,88.60
2017-08-20T21:12:05.380Z,88.30
2017-08-20T21:14:32.906Z,88.80
2017-08-20T21:17:01.186Z,88.20
2017-08-20T21:19:28.728Z,88.20
2017-08-20T21:21:57.011Z,88.30
2017-08-20T21:24:25.293Z,87.90
2017-08-20T21:26:52.842Z,87.80
2017-08-20T21:29:21.107Z,87.30
2017-08-20T21:31:49.380Z,87.90
2017-08-20T21:34:16.933Z,87.10
2017-08-20T21:36:44.440Z,86.60
2017-08-20T21:39:11.962Z,86.50
2017-08-20T21:41:40.256Z,85.60
2017-08-20T21:44:07.755Z,85.50
2017-08-20T21:46:35.274Z,85.30
2017-08-20T21:49:02.799Z,85.40
2017-08-20T21:51:30.304Z,84.90
2017-08-20T21:53:57.821Z,85.20
2017-08-20T21:56:25.378Z,85.00
2017-08-20T21:58:52.871Z,85.20
2017-08-20T22:01:20.451Z,84.60
2017-08-20T22:03:47.980Z,84.40
2017-08-20T22:06:15.479Z,84.00
2017-08-20T22:08:42.985Z,84.10
2017-08-20T22:11:11.297Z,83.90
2017-08-20T22:13:38.814Z,83.90
2017-08-20T22:16:07.090Z,83.60
2017-08-20T22:18:35.387Z,83.80
2017-08-20T22:21:02.898Z,83.60
2017-08-20T22:23:30.400Z,83.70
2017-08-20T22:25:57.946Z,83.50
2017-08-20T22:28:26.226Z,83.60
2017-08-20T22:30:54.514Z,83.60
2017-08-20T22:33:22.097Z,83.60
2017-08-20T22:35:49.595Z,83.80
2017-08-20T22:38:17.116Z,83.80
2017-08-20T22:40:44.666Z,84.00
2017-08-20T22:43:12.168Z,84.50
2017-08-20T22:45:39.686Z,84.70
2017-08-20T22:48:07.219Z,85.50
2017-08-20T22:50:34.808Z,86.10
2017-08-20T22:53:02.303Z,86.40
2017-08-20T22:55:29.927Z,87.10
2017-08-20T22:57:57.436Z,87.10
2017-08-20T23:00:25.736Z,88.00
2017-08-20T23:02:53.268Z,87.60
2017-08-20T23:05:21.536Z,88.20
2017-08-20T23:07:49.054Z,88.30
2017-08-20T23:10:16.589Z,88.30
2017-08-20T23:12:44.108Z,88.10
2017-08-20T23:15:11.621Z,88.40
2017-08-20T23:17:39.165Z,88.30
2017-08-20T23:20:06.672Z,88.40
2017-08-20T23:22:34.181Z,88.40
2017-08-20T23:25:01.730Z,88.60
2017-08-20T23:27:29.246Z,88.50
2017-08-20T23:29:56.748Z,88.80
2017-08-20T23:32:24.335Z,89.10
2017-08-20T23:34:51.853Z,89.40
2017-08-20T23:37:19.455Z,89.80
2017-08-20T23:39:47.002Z,90.00
2017-08-20T23:42:14.504Z,90.10
2017-08-20T23:44:42.008Z,90.10
2017-08-20T23:47:09.544Z,90.30
2017-08-20T23:49:37.826Z,90.40
2017-08-20T23:52:06.095Z,90.50
2017-08-20T23:54:34.405Z,90.50
2017-08-20T23:57:01.974Z,90.50
2017-08-20T23:59:29.490Z,90.60
